Time;durP1;ratioP1;P1;durP2;ratioP2;P2;SDS_P1;SDS_P2;PMS_P1;PMS_P2;Temp;Humidity;BMP_temperature;BMP_pressure;BME280_temperature;BME280_humidity;BME280_pressure;Samples;Min_cycle;Max_cycle;Signal;HPM_P1;HPM_P2
2021/12/16 00:02:20;;;;;;;41.35;25.83;;;8.30;99.90;;;;;;4973542;28;20041;-60
2021/12/16 00:05:16;;;;;;;41.30;23.30;;;8.30;99.90;;;;;;4972694;28;20067;-60
2021/12/16 00:07:39;;;;;;;45.05;23.75;;;8.20;99.90;;;;;;4954449;29;20082;-59
2021/12/16 00:30:03;;;;;;;38.58;21.52;;;8.10;99.90;;;;;;4969634;28;20089;-60
2021/12/16 00:34:57;;;;;;;41.10;22.73;;;8.10;99.90;;;;;;4968126;28;20081;-60
2021/12/16 00:37:24;;;;;;;39.05;22.63;;;8.10;99.90;;;;;;4968969;28;20038;-62
2021/12/16 00:39:50;;;;;;;54.55;28.55;;;8.10;99.90;;;;;;4967020;28;20093;-60
2021/12/16 00:55:47;;;;;;;47.95;24.98;;;8.10;99.90;;;;;;4962915;28;20130;-59
2021/12/16 00:58:13;;;;;;;34.22;21.15;;;8.20;99.90;;;;;;4964241;28;20166;-60
2021/12/16 01:00:41;;;;;;;37.03;21.83;;;8.10;99.90;;;;;;4969138;28;20031;-59
2021/12/16 01:03:25;;;;;;;44.45;23.42;;;8.10;99.90;;;;;;4964622;28;20109;-57
2021/12/16 01:06:19;;;;;;;47.47;26.00;;;8.10;99.90;;;;;;4962076;28;20053;-60
2021/12/16 01:33:58;;;;;;;42.28;24.08;;;8.00;99.90;;;;;;4967294;28;20105;-61
2021/12/16 01:37:07;;;;;;;42.88;23.88;;;8.00;99.90;;;;;;4966933;28;20035;-61
2021/12/16 01:49:54;;;;;;;48.03;25.95;;;8.00;99.90;;;;;;4959169;28;20013;-57
2021/12/16 01:55:07;;;;;;;46.08;26.23;;;8.00;99.90;;;;;;4963852;28;20777;-60
2021/12/16 01:57:40;;;;;;;51.80;27.98;;;8.00;99.90;;;;;;4965577;28;20043;-60
2021/12/16 02:00:18;;;;;;;53.20;28.80;;;8.00;99.90;;;;;;4967994;28;20034;-60
2021/12/16 02:02:48;;;;;;;47.63;28.60;;;8.00;99.90;;;;;;4966289;28;20455;-60
2021/12/16 02:05:50;;;;;;;46.45;26.90;;;8.00;99.90;;;;;;4968830;28;20058;-59
2021/12/16 02:08:20;;;;;;;45.97;26.63;;;8.00;99.90;;;;;;4964119;28;20354;-59
2021/12/16 02:10:57;;;;;;;55.05;27.10;;;8.00;99.90;;;;;;4962783;28;20038;-60
2021/12/16 02:27:16;;;;;;;46.05;25.92;;;8.00;99.90;;;;;;4968627;28;20030;-59
2021/12/16 02:32:51;;;;;;;53.50;29.02;;;8.00;99.90;;;;;;4965849;28;20408;-60
2021/12/16 02:35:43;;;;;;;56.65;28.67;;;8.00;99.90;;;;;;4966697;28;20039;-59
2021/12/16 02:38:12;;;;;;;49.92;27.42;;;8.00;99.90;;;;;;4966125;28;20077;-61
2021/12/16 02:40:39;;;;;;;48.90;28.88;;;8.00;99.90;;;;;;4966232;28;20133;-60
2021/12/16 02:48:44;;;;;;;;;;;8.00;99.90;;;;;;4967297;28;20042;-59
2021/12/16 02:51:10;;;;;;;49.38;28.60;;;8.00;99.90;;;;;;4971444;28;19917;-59
2021/12/16 02:53:39;;;;;;;50.92;29.45;;;8.00;99.90;;;;;;4972270;28;20022;-58
2021/12/16 02:56:05;;;;;;;55.85;28.45;;;8.00;99.90;;;;;;4972113;28;20034;-60
2021/12/16 02:58:32;;;;;;;57.75;30.60;;;8.00;99.90;;;;;;4973554;28;20540;-60
2021/12/16 03:01:07;;;;;;;53.47;29.30;;;8.00;99.90;;;;;;4975343;28;20059;-60
2021/12/16 03:03:35;;;;;;;47.97;27.95;;;8.00;99.90;;;;;;4973861;28;20023;-58
2021/12/16 03:06:02;;;;;;;58.20;30.77;;;8.00;99.90;;;;;;4974042;28;20042;-60
2021/12/16 03:08:29;;;;;;;51.88;30.05;;;8.00;99.90;;;;;;4971513;28;20027;-59
2021/12/16 03:13:55;;;;;;;61.58;32.00;;;8.00;99.90;;;;;;4973413;28;20045;-59
2021/12/16 03:16:35;;;;;;;53.70;29.35;;;8.00;99.90;;;;;;4973788;28;20030;-60
2021/12/16 03:21:39;;;;;;;54.42;28.55;;;8.00;99.90;;;;;;4974129;28;20065;-60
2021/12/16 03:30:41;;;;;;;65.88;32.20;;;8.00;99.90;;;;;;4971345;28;20033;-60
2021/12/16 03:35:14;;;;;;;65.80;33.80;;;8.10;99.90;;;;;;4970173;28;20019;-61
2021/12/16 03:37:41;;;;;;;70.15;33.72;;;8.10;99.90;;;;;;4971151;28;20034;-60
2021/12/16 03:40:11;;;;;;;66.82;32.85;;;8.10;99.90;;;;;;4965624;28;20034;-59
2021/12/16 03:42:40;;;;;;;62.50;32.22;;;8.10;99.90;;;;;;4973564;28;20447;-61
2021/12/16 03:48:11;;;;;;;65.28;32.45;;;8.10;99.90;;;;;;4970514;28;20684;-61
2021/12/16 03:50:37;;;;;;;62.97;30.25;;;8.10;99.90;;;;;;4970858;28;20066;-60
2021/12/16 03:53:04;;;;;;;61.45;30.88;;;8.10;99.90;;;;;;4968110;28;20054;-59
2021/12/16 03:55:30;;;;;;;54.97;29.30;;;8.10;99.90;;;;;;4974176;28;20058;-59
2021/12/16 03:57:56;;;;;;;55.42;27.95;;;8.10;99.90;;;;;;4971826;28;20034;-59
2021/12/16 04:00:30;;;;;;;55.13;28.52;;;8.00;99.90;;;;;;4971122;28;20078;-56
2021/12/16 04:02:57;;;;;;;61.42;31.58;;;8.10;99.90;;;;;;4970420;28;20512;-59
2021/12/16 04:05:24;;;;;;;61.70;32.35;;;8.00;99.90;;;;;;4970891;28;20617;-58
2021/12/16 04:07:50;;;;;;;59.45;31.23;;;8.00;99.90;;;;;;4970295;28;20027;-59
2021/12/16 04:10:31;;;;;;;70.45;34.20;;;8.00;99.90;;;;;;4971223;28;20126;-60
2021/12/16 04:12:56;;;;;;;65.13;33.53;;;8.00;99.90;;;;;;4970433;28;20086;-57
2021/12/16 04:15:22;;;;;;;64.50;33.20;;;8.00;99.90;;;;;;4971028;28;20397;-60
2021/12/16 04:17:48;;;;;;;67.72;33.47;;;8.00;99.90;;;;;;4954610;28;20038;-61
2021/12/16 04:20:14;;;;;;;69.50;32.33;;;8.00;99.90;;;;;;4970186;28;21442;-59
2021/12/16 04:22:43;;;;;;;64.65;32.70;;;8.00;99.90;;;;;;4971089;28;20026;-60
2021/12/16 04:25:12;;;;;;;67.63;34.35;;;8.10;99.90;;;;;;4970404;28;20015;-60
2021/12/16 04:27:39;;;;;;;67.05;33.03;;;8.10;99.90;;;;;;4961671;28;21514;-59
2021/12/16 04:30:09;;;;;;;69.93;34.60;;;8.10;99.90;;;;;;4967451;28;20066;-59
2021/12/16 04:32:36;;;;;;;80.60;36.97;;;8.10;99.90;;;;;;4965837;28;20571;-59
2021/12/16 04:35:03;;;;;;;64.32;33.13;;;8.10;99.90;;;;;;4970399;28;20038;-59
2021/12/16 04:37:28;;;;;;;60.60;31.70;;;8.10;99.90;;;;;;4968962;28;20053;-58
2021/12/16 04:39:54;;;;;;;64.60;32.97;;;8.10;99.90;;;;;;4968093;28;20058;-59
2021/12/16 04:42:24;;;;;;;64.05;32.40;;;8.10;99.90;;;;;;4970683;28;20476;-59
2021/12/16 04:44:49;;;;;;;67.30;33.05;;;8.10;99.90;;;;;;4966371;28;20065;-59
2021/12/16 04:47:15;;;;;;;64.20;31.55;;;8.10;99.90;;;;;;4966712;28;20058;-59
2021/12/16 04:49:41;;;;;;;70.10;33.53;;;8.10;99.90;;;;;;4967094;28;20039;-58
2021/12/16 04:52:13;;;;;;;64.28;32.70;;;8.10;99.90;;;;;;4963543;28;20097;-59
2021/12/16 04:54:39;;;;;;;74.80;34.22;;;8.10;99.90;;;;;;4962784;28;20436;-54
2021/12/16 04:57:05;;;;;;;71.00;35.92;;;8.20;99.90;;;;;;4961086;28;20033;-59
2021/12/16 04:59:32;;;;;;;69.95;35.08;;;8.10;99.90;;;;;;4964139;28;20049;-59
2021/12/16 05:02:04;;;;;;;78.75;35.63;;;8.10;99.90;;;;;;4966968;28;20026;-58
2021/12/16 05:04:30;;;;;;;80.53;34.92;;;8.10;99.90;;;;;;4962485;28;20133;-59
2021/12/16 05:06:56;;;;;;;69.22;32.33;;;8.00;99.90;;;;;;4962164;28;20106;-58
2021/12/16 05:10:01;;;;;;;84.22;35.22;;;8.00;99.90;;;;;;4968835;28;20112;-59
2021/12/16 05:12:18;;;;;;;;;;;8.00;99.90;;;;;;4969235;28;20446;-58
2021/12/16 05:14:45;;;;;;;70.22;32.60;;;7.80;99.90;;;;;;4966492;28;19914;-57
2021/12/16 05:17:32;;;;;;;72.15;33.33;;;7.80;99.90;;;;;;4967479;28;20031;-58
2021/12/16 05:20:02;;;;;;;73.47;32.55;;;7.80;99.90;;;;;;4969509;28;20047;-58
2021/12/16 05:25:22;;;;;;;67.00;31.67;;;7.70;99.90;;;;;;4971104;28;20041;-57
2021/12/16 05:27:48;;;;;;;77.32;33.55;;;7.60;99.90;;;;;;4961562;28;20070;-59
2021/12/16 05:30:14;;;;;;;65.90;32.65;;;7.70;99.90;;;;;;4968319;28;20054;-59
2021/12/16 05:32:45;;;;;;;71.82;31.13;;;7.60;99.90;;;;;;4964169;28;20500;-58
2021/12/16 05:35:11;;;;;;;64.28;32.10;;;7.60;99.90;;;;;;4961631;28;20106;-58
2021/12/16 05:37:37;;;;;;;75.20;36.65;;;7.50;99.90;;;;;;4970795;28;20389;-58
2021/12/16 05:40:03;;;;;;;73.88;33.78;;;7.50;99.90;;;;;;4965628;28;20035;-58
2021/12/16 05:42:28;;;;;;;71.32;34.67;;;7.50;99.90;;;;;;4965610;28;20039;-56
2021/12/16 05:44:54;;;;;;;66.15;33.03;;;7.50;99.90;;;;;;4968634;28;20038;-54
2021/12/16 05:47:20;;;;;;;70.53;33.38;;;7.50;99.90;;;;;;4967339;28;20046;-59
2021/12/16 05:49:46;;;;;;;69.95;32.63;;;7.50;99.90;;;;;;4967458;28;20142;-56
2021/12/16 05:52:11;;;;;;;79.70;34.63;;;7.50;99.90;;;;;;4970236;28;20023;-59
2021/12/16 05:54:37;;;;;;;70.90;33.53;;;7.50;99.90;;;;;;4964477;28;20039;-59
2021/12/16 05:57:03;;;;;;;69.70;32.55;;;7.50;99.90;;;;;;4967934;28;20620;-58
2021/12/16 05:59:29;;;;;;;69.65;34.58;;;7.50;99.90;;;;;;4967958;28;20648;-59
2021/12/16 06:01:55;;;;;;;68.72;32.13;;;7.50;99.90;;;;;;4968302;28;20062;-59
2021/12/16 06:04:20;;;;;;;75.50;31.73;;;7.50;99.90;;;;;;4967487;28;20037;-59
2021/12/16 06:06:46;;;;;;;84.50;35.40;;;7.50;99.90;;;;;;4968607;28;20015;-59
2021/12/16 06:09:12;;;;;;;76.85;35.90;;;7.50;99.90;;;;;;4969311;28;20034;-59
2021/12/16 06:11:41;;;;;;;69.22;32.28;;;7.50;99.90;;;;;;4966872;28;20034;-59
2021/12/16 06:27:34;;;;;;;84.50;36.30;;;7.80;99.90;;;;;;4961729;28;20123;-60
2021/12/16 06:29:59;;;;;;;88.97;36.58;;;7.80;99.90;;;;;;4965964;28;20073;-60
2021/12/16 06:32:26;;;;;;;78.90;35.35;;;7.90;99.90;;;;;;4968320;28;20026;-56
2021/12/16 06:34:53;;;;;;;82.93;36.30;;;8.00;99.90;;;;;;4968182;28;20033;-60
2021/12/16 06:37:19;;;;;;;84.32;36.33;;;8.00;99.90;;;;;;4968047;28;20027;-60
2021/12/16 06:39:44;;;;;;;77.82;34.25;;;7.90;99.90;;;;;;4966402;28;20134;-54
2021/12/16 06:42:11;;;;;;;71.65;34.90;;;7.90;99.90;;;;;;4967204;28;20026;-54
2021/12/16 06:44:43;;;;;;;67.07;32.78;;;7.90;99.90;;;;;;4966164;28;20077;-57
2021/12/16 06:47:15;;;;;;;63.35;31.10;;;7.90;99.90;;;;;;4965196;28;20042;-58
2021/12/16 06:49:43;;;;;;;58.05;28.42;;;7.90;99.90;;;;;;4968138;28;20030;-59
2021/12/16 06:52:12;;;;;;;67.10;30.80;;;7.80;99.90;;;;;;4945708;28;20806;-59
2021/12/16 06:55:08;;;;;;;65.80;33.88;;;7.80;99.90;;;;;;4966388;28;20031;-57
2021/12/16 06:58:12;;;;;;;61.28;30.05;;;7.80;99.90;;;;;;4968074;28;20042;-57
2021/12/16 07:00:29;;;;;;;81.43;32.67;;;7.70;99.90;;;;;;4956703;28;20058;-57
2021/12/16 07:05:27;;;;;;;82.03;38.10;;;7.40;99.90;;;;;;4967916;28;20039;-55
2021/12/16 07:07:52;;;;;;;103.13;40.53;;;7.20;99.90;;;;;;4968483;28;20473;-56
2021/12/16 07:10:20;;;;;;;101.68;41.53;;;7.10;99.90;;;;;;4967434;28;20027;-55
2021/12/16 07:12:48;;;;;;;110.50;43.58;;;7.00;99.90;;;;;;4946014;28;20035;-56
2021/12/16 07:15:20;;;;;;;119.07;44.67;;;6.90;99.90;;;;;;4964829;28;20046;-58
2021/12/16 07:17:47;;;;;;;129.10;45.80;;;6.80;99.90;;;;;;4966164;28;20115;-56
2021/12/16 07:20:16;;;;;;;131.95;47.25;;;6.80;99.90;;;;;;4967409;28;20039;-58
2021/12/16 07:22:41;;;;;;;114.57;43.85;;;6.70;99.90;;;;;;4965770;28;20105;-58
2021/12/16 07:25:08;;;;;;;122.20;45.08;;;6.60;99.90;;;;;;4968360;28;20066;-59
2021/12/16 07:27:35;;;;;;;127.80;46.60;;;6.60;99.90;;;;;;4963790;28;20027;-57
2021/12/16 07:30:04;;;;;;;117.03;43.70;;;6.50;99.90;;;;;;4967916;28;20046;-55
2021/12/16 07:32:30;;;;;;;134.63;49.30;;;6.50;99.90;;;;;;4963399;28;20169;-59
2021/12/16 07:34:55;;;;;;;131.23;48.53;;;6.40;99.90;;;;;;4941289;28;20125;-58
2021/12/16 07:37:21;;;;;;;129.73;45.65;;;6.40;99.90;;;;;;4970684;28;20084;-59
2021/12/16 07:39:49;;;;;;;141.20;47.88;;;6.40;99.90;;;;;;4963000;28;20030;-50
2021/12/16 07:42:23;;;;;;;134.45;44.38;;;6.40;99.90;;;;;;4971118;28;20035;-55
2021/12/16 07:44:48;;;;;;;;;;;6.40;99.90;;;;;;4970666;28;20042;-58
2021/12/16 07:47:14;;;;;;;134.13;40.10;;;6.40;99.90;;;;;;4969232;28;20277;-57
2021/12/16 07:49:42;;;;;;;127.68;42.65;;;6.40;99.90;;;;;;4967608;28;20026;-57
2021/12/16 07:52:20;;;;;;;116.95;40.90;;;6.40;99.90;;;;;;4966183;28;20030;-57
2021/12/16 07:54:46;;;;;;;129.50;42.95;;;6.40;99.90;;;;;;4956788;28;20373;-58
2021/12/16 07:57:12;;;;;;;121.63;41.97;;;6.40;99.90;;;;;;4969618;28;20117;-56
2021/12/16 07:59:38;;;;;;;119.20;41.35;;;6.40;99.90;;;;;;4969919;28;20493;-59
2021/12/16 08:02:07;;;;;;;113.53;42.50;;;6.50;99.90;;;;;;4967428;28;20113;-60
2021/12/16 08:04:39;;;;;;;121.55;42.63;;;6.50;99.90;;;;;;4968227;28;20562;-55
2021/12/16 08:07:06;;;;;;;110.53;40.47;;;6.60;99.90;;;;;;4969093;28;20038;-57
2021/12/16 08:09:34;;;;;;;125.97;44.17;;;6.70;99.90;;;;;;4968758;28;20015;-57
2021/12/16 08:12:01;;;;;;;120.40;43.90;;;6.80;99.90;;;;;;4968274;28;20030;-58
2021/12/16 08:14:26;;;;;;;115.22;41.42;;;6.90;99.90;;;;;;4969295;28;20034;-59
2021/12/16 08:16:52;;;;;;;114.18;43.58;;;7.00;99.90;;;;;;4968719;28;20511;-58
2021/12/16 08:19:18;;;;;;;97.63;40.30;;;7.00;99.90;;;;;;4968576;28;20042;-55
2021/12/16 08:21:44;;;;;;;106.47;40.97;;;7.00;99.90;;;;;;4968542;28;20608;-58
2021/12/16 08:24:14;;;;;;;94.93;38.53;;;7.00;99.90;;;;;;4970043;28;20120;-58
2021/12/16 08:26:40;;;;;;;96.05;38.83;;;6.90;99.90;;;;;;4967975;28;20023;-60
2021/12/16 08:29:06;;;;;;;107.78;41.00;;;6.90;99.90;;;;;;4966097;28;20022;-59
2021/12/16 08:31:33;;;;;;;100.90;38.95;;;6.90;99.90;;;;;;4970162;28;20035;-59
2021/12/16 08:33:59;;;;;;;119.45;41.55;;;6.90;99.90;;;;;;4970098;28;20035;-59
2021/12/16 08:36:26;;;;;;;118.78;43.78;;;6.90;99.90;;;;;;4969718;28;20037;-59
2021/12/16 08:38:52;;;;;;;107.50;40.38;;;7.00;99.90;;;;;;4968437;28;20477;-58
2021/12/16 08:41:24;;;;;;;136.32;47.90;;;7.10;99.90;;;;;;4970289;28;20026;-58
2021/12/16 08:43:50;;;;;;;135.63;49.30;;;7.30;99.90;;;;;;4968505;28;20026;-59
2021/12/16 08:46:19;;;;;;;118.25;46.60;;;7.40;99.90;;;;;;4970074;28;20042;-56
2021/12/16 08:48:46;;;;;;;120.90;45.88;;;7.50;99.90;;;;;;4968129;28;20081;-57
2021/12/16 08:51:15;;;;;;;121.38;43.78;;;7.60;99.90;;;;;;4960709;28;20038;-57
2021/12/16 08:53:41;;;;;;;113.57;44.20;;;7.60;99.90;;;;;;4965503;28;20042;-59
2021/12/16 08:56:08;;;;;;;114.53;40.17;;;7.70;99.90;;;;;;4951917;28;20125;-57
2021/12/16 08:58:37;;;;;;;89.85;37.20;;;7.70;99.90;;;;;;4969642;28;20085;-57
2021/12/16 09:01:11;;;;;;;87.68;38.00;;;7.80;99.90;;;;;;4970138;28;22020;-56
2021/12/16 09:03:36;;;;;;;57.60;27.05;;;7.80;99.90;;;;;;4969738;28;20027;-56
2021/12/16 09:06:03;;;;;;;64.40;29.13;;;7.90;99.90;;;;;;4969738;28;20041;-58
2021/12/16 09:08:29;;;;;;;41.40;21.92;;;7.90;99.90;;;;;;4968852;28;20027;-60
2021/12/16 09:10:55;;;;;;;39.05;17.77;;;8.00;99.90;;;;;;4970080;28;20392;-57
2021/12/16 09:13:21;;;;;;;75.70;36.55;;;8.00;99.90;;;;;;4970389;28;20061;-55
2021/12/16 09:15:55;;;;;;;60.80;30.33;;;8.10;99.90;;;;;;4969375;28;20034;-53
2021/12/16 09:18:24;;;;;;;23.60;14.18;;;8.20;99.90;;;;;;4967308;28;20031;-58
2021/12/16 09:20:51;;;;;;;50.83;24.33;;;8.30;99.90;;;;;;4965152;28;20117;-56
2021/12/16 09:23:17;;;;;;;72.25;34.03;;;8.30;99.90;;;;;;4968114;28;20038;-59
2021/12/16 09:25:45;;;;;;;79.00;37.60;;;8.40;99.90;;;;;;4970296;28;20075;-58
2021/12/16 09:28:11;;;;;;;91.57;41.15;;;8.60;99.90;;;;;;4959724;28;20027;-56
2021/12/16 09:30:38;;;;;;;85.93;39.78;;;8.60;99.90;;;;;;4945522;28;20072;-56
2021/12/16 09:33:05;;;;;;;87.32;41.03;;;8.70;99.90;;;;;;4968065;28;20023;-59
2021/12/16 09:35:35;;;;;;;90.32;41.97;;;8.70;99.90;;;;;;4965289;28;20132;-59
2021/12/16 09:38:03;;;;;;;77.05;37.95;;;8.70;99.90;;;;;;4962725;28;20030;-58
2021/12/16 09:40:34;;;;;;;79.32;40.63;;;8.80;99.90;;;;;;4969706;28;20035;-57
2021/12/16 09:43:02;;;;;;;88.88;42.88;;;8.90;99.90;;;;;;4969937;28;20039;-58
2021/12/16 09:45:28;;;;;;;43.95;23.58;;;8.90;99.90;;;;;;4972159;28;20034;-59
2021/12/16 09:47:54;;;;;;;61.40;29.73;;;8.90;99.90;;;;;;4970129;28;20385;-60
2021/12/16 09:50:24;;;;;;;51.00;26.35;;;8.90;99.90;;;;;;4970242;28;20030;-57
2021/12/16 09:52:50;;;;;;;43.75;24.05;;;8.90;99.90;;;;;;4970140;28;20049;-60
2021/12/16 09:55:16;;;;;;;63.95;30.20;;;8.90;99.90;;;;;;4954353;28;20515;-58
2021/12/16 09:57:42;;;;;;;54.15;29.20;;;8.90;99.90;;;;;;4969299;28;20118;-58
2021/12/16 10:00:10;;;;;;;55.28;30.70;;;9.00;99.90;;;;;;4967277;28;20034;-59
2021/12/16 10:02:38;;;;;;;58.22;31.00;;;9.10;99.90;;;;;;4966260;28;20141;-56
2021/12/16 10:05:06;;;;;;;65.25;33.03;;;9.20;99.90;;;;;;4966064;28;20536;-56
2021/12/16 10:07:34;;;;;;;65.85;31.50;;;9.10;99.90;;;;;;4969063;28;20078;-59
2021/12/16 10:10:03;;;;;;;75.75;35.25;;;9.20;99.90;;;;;;4968996;28;20030;-58
2021/12/16 10:12:34;;;;;;;65.28;32.63;;;9.30;99.90;;;;;;4969321;28;20057;-60
2021/12/16 10:15:06;;;;;;;70.18;34.80;;;9.30;99.90;;;;;;4968787;28;20037;-58
2021/12/16 10:17:35;;;;;;;72.90;37.13;;;9.30;99.90;;;;;;4967251;28;20035;-61
2021/12/16 10:20:13;;;;;;;70.47;34.70;;;9.40;99.90;;;;;;4964798;28;20105;-60
2021/12/16 10:22:42;;;;;;;73.55;34.90;;;9.40;99.90;;;;;;4966767;28;20031;-59
2021/12/16 10:25:26;;;;;;;70.53;34.33;;;9.50;99.90;;;;;;4968151;28;20825;-59
2021/12/16 10:27:57;;;;;;;52.40;26.23;;;9.50;99.90;;;;;;4967957;28;20512;-60
2021/12/16 10:30:25;;;;;;;68.07;33.65;;;9.60;99.90;;;;;;4967917;28;20571;-59
2021/12/16 10:32:51;;;;;;;68.22;31.60;;;9.60;99.90;;;;;;4967902;28;20049;-60
2021/12/16 10:35:29;;;;;;;59.35;27.92;;;9.70;99.90;;;;;;4968031;28;20027;-56
2021/12/16 10:38:02;;;;;;;47.38;25.85;;;9.80;99.90;;;;;;4967313;28;20560;-59
2021/12/16 10:40:31;;;;;;;48.30;25.57;;;9.80;99.90;;;;;;4968051;28;20030;-57
2021/12/16 10:43:00;;;;;;;49.95;26.15;;;9.80;99.90;;;;;;4966603;28;20121;-60
2021/12/16 10:45:29;;;;;;;47.70;26.50;;;9.90;99.90;;;;;;4968108;28;20089;-60
2021/12/16 10:48:14;;;;;;;49.40;26.70;;;9.90;99.90;;;;;;4968801;28;20022;-64
2021/12/16 10:51:05;;;;;;;54.38;28.10;;;9.90;99.90;;;;;;4967870;28;20058;-58
2021/12/16 10:54:02;;;;;;;46.58;25.17;;;9.80;99.90;;;;;;4963181;28;20062;-60
2021/12/16 10:56:45;;;;;;;53.75;28.63;;;9.80;99.90;;;;;;4931189;28;20058;-60
2021/12/16 10:59:22;;;;;;;45.78;25.38;;;9.80;99.90;;;;;;4967394;28;20050;-57
2021/12/16 11:02:01;;;;;;;52.95;27.35;;;9.90;99.90;;;;;;4956943;28;20039;-54
2021/12/16 11:04:37;;;;;;;57.15;29.92;;;9.90;99.90;;;;;;4966965;28;20031;-58
2021/12/16 11:07:42;;;;;;;51.08;27.35;;;9.80;99.90;;;;;;4968252;28;20400;-57
2021/12/16 11:10:28;;;;;;;56.08;28.27;;;9.80;99.90;;;;;;4965684;28;20038;-59
2021/12/16 11:13:03;;;;;;;58.40;30.00;;;9.90;99.90;;;;;;4972078;28;20081;-57
2021/12/16 11:15:33;;;;;;;64.20;30.25;;;9.80;99.90;;;;;;4969508;28;20043;-57
2021/12/16 11:18:16;;;;;;;68.47;36.42;;;9.70;99.90;;;;;;4972783;28;20037;-56
2021/12/16 11:20:59;;;;;;;71.00;34.95;;;9.60;99.90;;;;;;4972500;28;20121;-60
2021/12/16 11:23:32;;;;;;;72.57;33.75;;;9.50;99.90;;;;;;4971264;28;20027;-56
2021/12/16 11:26:05;;;;;;;70.82;34.33;;;9.50;99.90;;;;;;4970102;28;20497;-56
2021/12/16 11:28:35;;;;;;;73.80;35.75;;;9.40;99.90;;;;;;4970970;28;20493;-59
2021/12/16 11:31:09;;;;;;;78.85;39.15;;;9.40;99.90;;;;;;4971017;28;20027;-56
2021/12/16 11:33:38;;;;;;;79.82;37.65;;;9.40;99.90;;;;;;4972309;28;20034;-58
2021/12/16 11:36:07;;;;;;;78.57;34.95;;;9.40;99.90;;;;;;4972798;28;20038;-58
2021/12/16 11:38:48;;;;;;;76.63;37.60;;;9.40;99.90;;;;;;4971310;28;20562;-60
2021/12/16 11:41:44;;;;;;;76.30;35.15;;;9.40;99.90;;;;;;4972109;28;20527;-58
2021/12/16 11:44:16;;;;;;;75.78;35.92;;;9.40;99.90;;;;;;4952695;28;20073;-59
2021/12/16 11:46:47;;;;;;;80.53;35.85;;;9.40;99.90;;;;;;4970993;28;20043;-56
2021/12/16 11:49:35;;;;;;;82.78;35.53;;;9.50;99.90;;;;;;4971597;28;20027;-58
2021/12/16 11:52:06;;;;;;;79.80;37.28;;;9.50;99.90;;;;;;4970379;28;20042;-55
2021/12/16 11:54:41;;;;;;;85.65;41.13;;;9.50;99.90;;;;;;4971432;28;20081;-57
2021/12/16 11:57:12;;;;;;;81.25;41.08;;;9.40;99.90;;;;;;4955448;28;20093;-57
2021/12/16 11:59:44;;;;;;;90.53;44.80;;;9.40;99.90;;;;;;4971208;28;20062;-60
2021/12/16 12:02:49;;;;;;;84.00;37.90;;;9.40;99.90;;;;;;4971877;28;20031;-59
2021/12/16 12:05:46;;;;;;;78.10;36.40;;;9.40;99.90;;;;;;4929148;28;20039;-58
2021/12/16 12:08:44;;;;;;;75.25;34.28;;;9.40;99.90;;;;;;4950186;28;20046;-57
2021/12/16 12:11:24;;;;;;;75.40;36.95;;;9.60;99.90;;;;;;4973410;28;20556;-58
2021/12/16 12:13:59;;;;;;;74.80;35.58;;;9.60;99.90;;;;;;4971710;28;20037;-57
2021/12/16 12:16:35;;;;;;;74.35;37.92;;;9.60;99.90;;;;;;4971677;28;20519;-58
2021/12/16 12:19:20;;;;;;;76.63;37.28;;;9.60;99.90;;;;;;4970885;28;20027;-60
2021/12/16 12:21:54;;;;;;;77.38;34.50;;;9.60;99.90;;;;;;4971233;28;20034;-57
2021/12/16 12:24:22;;;;;;;;;;;9.50;99.90;;;;;;4969822;28;20035;-58
2021/12/16 12:26:53;;;;;;;63.50;32.72;;;9.60;99.90;;;;;;4970918;28;20363;-53
2021/12/16 12:29:41;;;;;;;69.57;35.08;;;9.60;99.90;;;;;;4970269;28;20027;-59
2021/12/16 12:32:32;;;;;;;75.68;36.13;;;9.70;99.90;;;;;;4969313;28;20042;-59
2021/12/16 12:35:03;;;;;;;73.78;36.33;;;9.70;99.90;;;;;;4970070;28;20065;-57
2021/12/16 12:37:31;;;;;;;69.43;35.72;;;9.80;99.90;;;;;;4969770;28;20038;-60
2021/12/16 12:40:22;;;;;;;68.60;34.97;;;9.70;99.90;;;;;;4968398;28;20078;-60
2021/12/16 12:42:50;;;;;;;73.05;34.63;;;9.80;99.90;;;;;;4959443;28;20174;-59
2021/12/16 12:45:19;;;;;;;81.53;39.78;;;9.80;99.90;;;;;;4966655;28;20031;-57
2021/12/16 12:47:48;;;;;;;79.85;36.75;;;9.80;99.90;;;;;;4969482;28;20026;-56
2021/12/16 12:50:17;;;;;;;78.72;38.60;;;9.80;99.90;;;;;;4969782;28;20030;-58
2021/12/16 12:52:46;;;;;;;79.38;38.22;;;9.70;99.90;;;;;;4968926;28;20504;-59
2021/12/16 12:55:16;;;;;;;87.78;38.85;;;9.80;99.90;;;;;;4969751;28;20703;-55
2021/12/16 12:57:44;;;;;;;79.70;37.45;;;9.70;99.90;;;;;;4954367;28;20089;-55
2021/12/16 13:00:27;;;;;;;81.93;39.53;;;9.70;99.90;;;;;;4970015;28;20022;-57
2021/12/16 13:03:17;;;;;;;82.38;39.17;;;9.60;99.90;;;;;;4963760;28;20042;-51
2021/12/16 13:06:01;;;;;;;79.80;37.03;;;9.70;99.90;;;;;;4966768;28;20106;-55
2021/12/16 13:08:39;;;;;;;80.43;36.78;;;9.70;99.90;;;;;;4969140;28;20019;-54
2021/12/16 13:11:12;;;;;;;75.18;34.88;;;9.80;99.90;;;;;;4969155;28;20409;-53
2021/12/16 13:14:19;;;;;;;84.63;40.03;;;9.80;99.90;;;;;;4971580;28;20413;-59
2021/12/16 13:27:47;;;;;;;85.07;38.95;;;9.80;99.90;;;;;;4969036;28;20026;-57
2021/12/16 13:30:26;;;;;;;92.55;42.25;;;9.70;99.90;;;;;;4971350;28;20122;-58
2021/12/16 13:33:23;;;;;;;85.88;40.03;;;9.70;99.90;;;;;;4971772;28;20034;-57
2021/12/16 13:36:01;;;;;;;121.78;54.55;;;9.60;99.90;;;;;;4971497;28;20045;-49
2021/12/16 13:38:43;;;;;;;80.30;39.65;;;9.60;99.90;;;;;;4965254;28;20034;-57
2021/12/16 13:41:12;;;;;;;81.05;39.03;;;9.50;99.90;;;;;;4968936;28;20552;-55
2021/12/16 13:43:38;;;;;;;79.50;38.33;;;9.60;99.90;;;;;;4971439;28;20049;-58
2021/12/16 13:58:12;;;;;;;89.95;39.20;;;9.50;99.90;;;;;;4970308;28;20029;-52
2021/12/16 14:01:09;;;;;;;88.00;40.92;;;9.30;99.90;;;;;;4971953;28;20534;-57
2021/12/16 14:04:40;;;;;;;91.72;40.42;;;9.30;99.90;;;;;;4968576;28;20812;-55
2021/12/16 14:07:01;;;;;;;99.93;42.03;;;9.30;99.90;;;;;;4949529;28;20046;-57
2021/12/16 14:09:34;;;;;;;90.20;40.50;;;9.30;99.90;;;;;;4972679;28;20147;-58
2021/12/16 14:46:58;;;;;;;98.35;43.70;;;9.30;99.90;;;;;;4963908;28;20508;-57
2021/12/16 14:49:41;;;;;;;93.90;44.33;;;9.20;99.90;;;;;;4967874;28;20035;-58
2021/12/16 14:52:14;;;;;;;90.50;42.45;;;9.20;99.90;;;;;;4969726;28;20031;-59
2021/12/16 14:54:55;;;;;;;92.57;39.55;;;9.20;99.90;;;;;;4966996;28;20039;-57
2021/12/16 14:57:36;;;;;;;85.20;40.28;;;9.20;99.90;;;;;;4969656;28;20046;-57
2021/12/16 15:00:29;;;;;;;95.85;45.67;;;9.30;99.90;;;;;;4962261;28;20027;-57
2021/12/16 15:03:03;;;;;;;92.20;44.05;;;9.20;99.90;;;;;;4967119;28;20039;-57
2021/12/16 15:05:43;;;;;;;115.03;48.85;;;9.20;99.90;;;;;;4970319;28;20510;-55
2021/12/16 15:08:34;;;;;;;106.95;46.55;;;9.20;99.90;;;;;;4969235;28;20162;-57
2021/12/16 15:11:02;;;;;;;132.10;59.42;;;9.20;99.90;;;;;;4969367;28;20022;-58
2021/12/16 15:13:38;;;;;;;115.28;54.35;;;9.20;99.90;;;;;;4970271;28;20159;-55
2021/12/16 15:16:17;;;;;;;109.25;49.15;;;9.10;99.90;;;;;;4969712;28;20043;-57
2021/12/16 15:38:17;;;;;;;115.93;50.55;;;9.00;99.90;;;;;;4969507;28;20037;-56
2021/12/16 15:43:13;;;;;;;126.57;56.17;;;9.00;99.90;;;;;;4969227;28;20031;-58
2021/12/16 15:45:47;;;;;;;138.80;56.33;;;9.00;99.90;;;;;;4969951;28;20404;-56
2021/12/16 15:48:16;;;;;;;129.75;58.85;;;9.00;99.90;;;;;;4969147;28;20407;-56
2021/12/16 15:50:47;;;;;;;147.60;61.15;;;9.00;99.90;;;;;;4961081;28;20047;-57
2021/12/16 15:53:19;;;;;;;139.45;61.50;;;9.00;99.90;;;;;;4968024;28;20062;-54
2021/12/16 15:55:56;;;;;;;133.80;54.40;;;8.90;99.90;;;;;;4968538;28;20043;-57
2021/12/16 15:58:28;;;;;;;141.38;56.88;;;8.90;99.90;;;;;;4970421;28;20033;-57
2021/12/16 16:00:57;;;;;;;126.97;54.45;;;8.90;99.90;;;;;;4969524;28;20039;-57
2021/12/16 16:03:24;;;;;;;127.35;52.75;;;8.90;99.90;;;;;;4969675;28;20030;-57
2021/12/16 16:05:54;;;;;;;125.53;52.00;;;8.90;99.90;;;;;;4971329;28;20026;-56
2021/12/16 16:08:21;;;;;;;140.30;53.63;;;8.90;99.90;;;;;;4970386;28;20082;-55
2021/12/16 16:11:01;;;;;;;147.93;57.90;;;8.90;99.90;;;;;;4969414;28;20031;-58
2021/12/16 16:13:32;;;;;;;141.48;55.72;;;8.90;99.90;;;;;;4970359;28;20026;-57
2021/12/16 16:16:02;;;;;;;151.73;58.15;;;8.90;99.90;;;;;;4969756;28;20163;-57
2021/12/16 16:21:00;;;;;;;151.93;57.28;;;8.90;99.90;;;;;;4970729;28;20027;-57
2021/12/16 16:23:28;;;;;;;134.20;55.30;;;8.90;99.90;;;;;;4969805;28;20038;-58
2021/12/16 16:25:55;;;;;;;149.75;55.55;;;8.80;99.90;;;;;;4944367;28;20035;-58
2021/12/16 16:28:22;;;;;;;144.32;54.25;;;8.80;99.90;;;;;;4972269;28;20117;-59
2021/12/16 16:30:52;;;;;;;150.18;56.00;;;8.80;99.90;;;;;;4970375;28;20073;-60
2021/12/16 16:33:20;;;;;;;135.82;54.67;;;8.80;99.90;;;;;;4967092;28;20066;-58
2021/12/16 16:36:00;;;;;;;154.13;56.65;;;8.80;99.90;;;;;;4968615;28;20378;-59